createdAt,value
2022-11-29T00:02:20.915Z,101125.56
2022-11-29T00:04:48.707Z,101133.13
2022-11-29T00:07:16.553Z,101130.72
2022-11-29T00:09:45.723Z,101124.16
2022-11-29T00:12:13.514Z,101141.94
2022-11-29T00:14:41.636Z,101134.16
2022-11-29T00:17:09.705Z,101129.28
2022-11-29T00:19:38.155Z,101133.69
2022-11-29T00:22:06.217Z,101130.50
2022-11-29T00:24:34.594Z,101135.16
2022-11-29T00:27:03.983Z,101133.41
2022-11-29T00:29:31.859Z,101130.00
2022-11-29T00:31:59.980Z,101132.25
2022-11-29T00:34:27.759Z,101133.84
2022-11-29T00:36:55.445Z,101131.16
2022-11-29T00:39:23.276Z,101127.69
2022-11-29T00:41:51.064Z,101133.56
2022-11-29T00:44:20.821Z,101132.31
2022-11-29T00:46:49.762Z,101125.44
2022-11-29T00:49:17.940Z,101128.34
2022-11-29T00:51:45.823Z,101140.22
2022-11-29T00:54:13.632Z,101137.84
2022-11-29T00:56:41.424Z,101140.06
2022-11-29T00:59:09.168Z,101134.81
2022-11-29T01:01:38.267Z,101139.19
2022-11-29T01:04:06.276Z,101133.16
2022-11-29T01:06:34.118Z,101135.75
2022-11-29T01:09:01.874Z,101137.84
2022-11-29T01:11:30.123Z,101141.88
2022-11-29T01:14:00.516Z,101140.41
2022-11-29T01:16:29.992Z,101139.84
2022-11-29T01:18:59.177Z,101137.66
2022-11-29T01:21:27.194Z,101141.59
2022-11-29T01:23:55.804Z,101134.38
2022-11-29T01:26:26.352Z,101133.56
2022-11-29T01:28:56.168Z,101134.06
2022-11-29T01:31:26.185Z,101130.63
2022-11-29T01:33:55.102Z,101142.09
2022-11-29T01:36:24.872Z,101140.16
2022-11-29T01:38:52.959Z,101141.09
2022-11-29T01:41:22.855Z,101142.03
2022-11-29T01:43:56.362Z,101146.53
2022-11-29T01:46:23.940Z,101141.00
2022-11-29T01:48:55.686Z,101152.16
2022-11-29T01:51:25.999Z,101157.56
2022-11-29T01:53:54.693Z,101159.00
2022-11-29T01:56:22.907Z,101166.06
2022-11-29T01:58:50.740Z,101167.78
2022-11-29T02:01:18.732Z,101164.78
2022-11-29T02:03:46.528Z,101168.13
2022-11-29T02:06:15.171Z,101169.66
2022-11-29T02:08:44.790Z,101167.63
2022-11-29T02:11:57.487Z,101166.50
2022-11-29T02:14:37.867Z,101171.03
2022-11-29T02:17:20.373Z,101181.31
2022-11-29T02:20:10.188Z,101186.81
2022-11-29T02:22:43.417Z,101181.97
2022-11-29T02:25:32.401Z,101182.69
2022-11-29T02:28:39.050Z,101183.47
2022-11-29T02:31:34.307Z,101189.41
2022-11-29T02:34:21.812Z,101195.50
2022-11-29T02:37:11.267Z,101192.84
2022-11-29T02:40:01.821Z,101198.22
2022-11-29T02:43:05.374Z,101189.28
2022-11-29T02:45:45.215Z,101200.34
2022-11-29T02:48:28.927Z,101189.50
2022-11-29T02:51:02.656Z,101194.19
2022-11-29T02:53:37.237Z,101192.97
2022-11-29T02:56:14.672Z,101190.63
2022-11-29T02:58:51.009Z,101189.13
2022-11-29T03:01:25.985Z,101188.38
2022-11-29T03:04:02.348Z,101194.59
2022-11-29T03:06:39.716Z,101190.44
2022-11-29T03:09:15.263Z,101185.56
2022-11-29T03:11:49.557Z,101190.50
2022-11-29T03:14:25.227Z,101196.63
2022-11-29T03:17:02.968Z,101191.50
2022-11-29T03:19:41.201Z,101202.38
2022-11-29T03:22:18.429Z,101205.28
2022-11-29T03:24:53.308Z,101202.94
2022-11-29T03:27:28.340Z,101210.28
2022-11-29T03:30:00.636Z,101205.38
2022-11-29T03:32:34.644Z,101206.03
2022-11-29T03:35:07.919Z,101208.19
2022-11-29T03:37:46.627Z,101202.25
2022-11-29T03:40:18.955Z,101211.72
2022-11-29T03:42:54.158Z,101213.63
2022-11-29T03:45:26.769Z,101213.69
2022-11-29T03:48:00.721Z,101207.16
2022-11-29T03:50:34.408Z,101205.72
2022-11-29T03:53:09.089Z,101200.22
2022-11-29T03:55:50.491Z,101211.84
2022-11-29T03:58:47.476Z,101211.16
2022-11-29T04:01:44.692Z,101222.53
2022-11-29T04:04:47.745Z,101224.50
2022-11-29T04:07:35.023Z,101232.88
2022-11-29T04:10:18.528Z,101222.56
2022-11-29T04:13:18.943Z,101231.31
2022-11-29T04:16:11.749Z,101226.09
2022-11-29T04:19:26.738Z,101231.63
2022-11-29T04:22:18.067Z,101219.16
2022-11-29T04:25:19.207Z,101226.63
2022-11-29T04:28:11.778Z,101241.84
2022-11-29T04:30:49.171Z,101235.00
2022-11-29T04:33:49.292Z,101245.03
2022-11-29T04:36:49.959Z,101245.41
2022-11-29T04:39:32.290Z,101245.84
2022-11-29T04:42:25.258Z,101242.94
2022-11-29T04:45:11.777Z,101258.69
2022-11-29T04:47:56.557Z,101254.44
2022-11-29T04:50:40.005Z,101249.34
2022-11-29T04:53:28.969Z,101249.13
2022-11-29T04:56:07.364Z,101246.16
2022-11-29T04:58:42.077Z,101250.22
2022-11-29T05:01:19.812Z,101262.50
2022-11-29T05:03:57.212Z,101256.63
2022-11-29T05:06:33.730Z,101251.19
2022-11-29T05:09:12.037Z,101252.56
2022-11-29T05:11:56.451Z,101264.22
2022-11-29T05:14:37.048Z,101255.97
2022-11-29T05:17:32.624Z,101264.00
2022-11-29T05:20:09.361Z,101254.91
2022-11-29T05:22:43.633Z,101255.53
2022-11-29T05:25:41.141Z,101266.97
2022-11-29T05:28:17.243Z,101278.19
2022-11-29T05:31:19.979Z,101289.19
2022-11-29T05:34:06.772Z,101286.41
2022-11-29T05:36:42.029Z,101286.81
2022-11-29T05:39:36.205Z,101291.94
2022-11-29T05:42:18.989Z,101304.44
2022-11-29T05:44:52.056Z,101298.75
2022-11-29T05:47:31.049Z,101288.22
2022-11-29T05:50:06.884Z,101296.31
2022-11-29T05:52:46.072Z,101300.13
2022-11-29T05:55:26.188Z,101300.63
2022-11-29T05:57:59.588Z,101306.63
2022-11-29T06:00:30.528Z,101301.91
2022-11-29T06:03:04.706Z,101311.56
2022-11-29T06:05:39.523Z,101311.72
2022-11-29T06:08:14.073Z,101305.66
2022-11-29T06:10:57.084Z,101305.41
2022-11-29T06:13:37.971Z,101310.56
2022-11-29T06:16:27.960Z,101313.22
2022-11-29T06:19:30.442Z,101306.72
2022-11-29T06:22:13.368Z,101315.34
2022-11-29T06:25:03.395Z,101318.09
2022-11-29T06:27:52.876Z,101329.91
2022-11-29T06:30:23.791Z,101327.31
2022-11-29T06:33:01.248Z,101324.78
2022-11-29T06:35:40.791Z,101331.94
2022-11-29T06:38:18.882Z,101337.13
2022-11-29T06:40:47.157Z,101339.53
2022-11-29T06:43:15.747Z,101348.91
2022-11-29T06:45:50.043Z,101342.41
2022-11-29T06:48:24.142Z,101344.75
2022-11-29T06:50:59.296Z,101347.56
2022-11-29T06:53:40.312Z,101347.78
2022-11-29T06:56:20.573Z,101355.81
2022-11-29T06:58:58.401Z,101356.72
2022-11-29T07:01:37.252Z,101346.50
2022-11-29T07:04:21.176Z,101341.38
2022-11-29T07:06:48.914Z,101346.69
2022-11-29T07:09:20.785Z,101351.22
2022-11-29T07:11:49.433Z,101349.47
2022-11-29T07:14:17.807Z,101350.53
2022-11-29T07:16:57.175Z,101356.69
2022-11-29T07:19:35.892Z,101358.59
2022-11-29T07:22:10.664Z,101359.31
2022-11-29T07:24:56.172Z,101371.28
2022-11-29T07:27:32.140Z,101368.47
2022-11-29T07:30:11.089Z,101382.53
2022-11-29T07:32:52.871Z,101378.75
2022-11-29T07:35:33.736Z,101390.19
2022-11-29T07:38:13.151Z,101396.53
2022-11-29T07:40:48.916Z,101396.84
2022-11-29T07:43:36.561Z,101388.56
2022-11-29T07:46:04.672Z,101395.03
2022-11-29T07:48:32.447Z,101406.91
2022-11-29T07:51:01.482Z,101407.34
2022-11-29T07:53:30.299Z,101406.03
2022-11-29T07:55:59.720Z,101410.53
2022-11-29T07:58:27.416Z,101414.09
2022-11-29T08:00:55.220Z,101413.72
2022-11-29T08:03:23.032Z,101410.50
2022-11-29T08:05:50.739Z,101418.47
2022-11-29T08:08:18.565Z,101416.34
2022-11-29T08:10:46.364Z,101419.53
2022-11-29T08:13:15.791Z,101414.00
2022-11-29T08:15:47.656Z,101427.09
2022-11-29T08:18:15.455Z,101433.50
2022-11-29T08:20:44.269Z,101419.94
2022-11-29T08:23:14.057Z,101421.56
2022-11-29T08:25:42.144Z,101428.53
2022-11-29T08:28:10.433Z,101435.69
2022-11-29T08:30:39.614Z,101432.13
2022-11-29T08:33:07.509Z,101436.25
2022-11-29T08:35:36.076Z,101438.50
2022-11-29T08:38:04.937Z,101442.94
2022-11-29T08:40:32.772Z,101443.81
2022-11-29T08:43:00.641Z,101451.13
2022-11-29T08:45:28.374Z,101461.56
2022-11-29T08:47:57.516Z,101457.34
2022-11-29T08:50:25.646Z,101460.50
2022-11-29T08:53:10.746Z,101453.22
2022-11-29T08:55:43.238Z,101466.19
2022-11-29T08:58:13.899Z,101468.28
2022-11-29T09:00:44.014Z,101470.09
2022-11-29T09:03:27.262Z,101469.84
2022-11-29T09:05:55.301Z,101467.91
2022-11-29T09:08:23.157Z,101466.97
2022-11-29T09:10:50.866Z,101467.34
2022-11-29T09:13:19.047Z,101467.94
2022-11-29T09:15:46.729Z,101478.25
2022-11-29T09:18:15.805Z,101482.78
2022-11-29T09:20:44.689Z,101490.81
2022-11-29T09:23:13.054Z,101495.34
2022-11-29T09:25:40.747Z,101488.72
2022-11-29T09:28:08.553Z,101495.91
2022-11-29T09:30:38.064Z,101495.22
2022-11-29T09:33:05.994Z,101489.97
2022-11-29T09:35:35.207Z,101491.47
2022-11-29T09:38:03.081Z,101501.34
2022-11-29T09:40:38.386Z,101505.59
2022-11-29T09:43:18.808Z,101507.84
2022-11-29T09:45:50.804Z,101500.88
2022-11-29T09:48:36.799Z,101500.47
2022-11-29T09:51:17.996Z,101500.88
2022-11-29T09:54:01.833Z,101504.91
2022-11-29T09:56:36.654Z,101512.56
2022-11-29T09:59:10.019Z,101513.66
2022-11-29T10:01:42.376Z,101506.81
2022-11-29T10:04:15.133Z,101518.75
2022-11-29T10:06:49.640Z,101517.00
2022-11-29T10:09:23.910Z,101523.72
2022-11-29T10:12:01.427Z,101518.88
2022-11-29T10:14:35.294Z,101515.09
2022-11-29T10:17:08.234Z,101521.44
2022-11-29T10:19:39.205Z,101526.00
2022-11-29T10:22:18.901Z,101531.44
2022-11-29T10:24:49.980Z,101521.75
2022-11-29T10:27:23.056Z,101528.41
2022-11-29T10:29:51.558Z,101531.13
2022-11-29T10:32:21.318Z,101537.75
2022-11-29T10:34:49.441Z,101534.31
2022-11-29T10:37:20.373Z,101523.22
2022-11-29T10:39:51.885Z,101525.03
2022-11-29T10:42:45.438Z,101529.38
2022-11-29T10:45:18.885Z,101528.09
2022-11-29T10:47:47.615Z,101515.75
2022-11-29T10:50:20.120Z,101517.00
2022-11-29T10:52:49.219Z,101509.06
2022-11-29T10:55:19.012Z,101506.53
2022-11-29T10:58:10.216Z,101507.38
2022-11-29T11:00:52.010Z,101507.09
2022-11-29T11:03:28.310Z,101509.84
2022-11-29T11:05:59.492Z,101504.09
2022-11-29T11:08:29.654Z,101511.31
2022-11-29T11:11:01.784Z,101512.09
2022-11-29T11:13:32.649Z,101510.09
2022-11-29T11:16:09.792Z,101506.56
2022-11-29T11:18:38.492Z,101502.94
2022-11-29T11:21:10.344Z,101513.44
2022-11-29T11:23:46.527Z,101506.47
2022-11-29T11:26:15.973Z,101514.53
2022-11-29T11:28:50.005Z,101517.16
2022-11-29T11:31:31.291Z,101517.28
2022-11-29T11:34:24.959Z,101511.44
2022-11-29T11:36:53.477Z,101498.47
2022-11-29T11:39:24.270Z,101499.41
2022-11-29T11:42:10.590Z,101498.75
2022-11-29T11:44:48.670Z,101499.56
2022-11-29T11:47:19.367Z,101500.53
2022-11-29T11:49:50.191Z,101504.09
2022-11-29T11:52:22.091Z,101500.38
2022-11-29T11:54:54.425Z,101501.75
2022-11-29T11:57:23.676Z,101497.88
2022-11-29T11:59:53.599Z,101498.25
2022-11-29T12:02:30.011Z,101499.31
2022-11-29T12:05:01.672Z,101502.88
2022-11-29T12:08:06.335Z,101504.97
2022-11-29T12:10:28.035Z,101504.53
2022-11-29T12:12:56.851Z,101509.03
2022-11-29T12:15:29.502Z,101509.69
2022-11-29T12:18:02.617Z,101515.13
2022-11-29T12:20:33.803Z,101519.31
2022-11-29T12:23:20.483Z,101512.91
2022-11-29T12:25:54.597Z,101511.88
2022-11-29T12:28:26.304Z,101506.44
2022-11-29T12:30:59.942Z,101511.13
2022-11-29T12:33:38.621Z,101515.16
2022-11-29T12:36:20.570Z,101513.00
2022-11-29T12:39:00.837Z,101507.97
2022-11-29T12:41:41.065Z,101504.75
2022-11-29T12:44:23.096Z,101515.72
2022-11-29T12:47:34.133Z,101515.88
2022-11-29T12:50:05.330Z,101514.91
2022-11-29T12:52:42.097Z,101508.91
2022-11-29T12:55:22.099Z,101516.97
2022-11-29T12:58:00.733Z,101513.34
2022-11-29T13:00:33.930Z,101519.72
2022-11-29T13:03:13.994Z,101517.91
2022-11-29T13:05:56.970Z,101514.38
2022-11-29T13:08:46.984Z,101516.75
2022-11-29T13:11:21.037Z,101500.94
2022-11-29T13:14:13.772Z,101504.91
2022-11-29T13:16:57.181Z,101499.44
2022-11-29T13:19:30.347Z,101495.66
2022-11-29T13:22:05.763Z,101494.56
2022-11-29T13:24:42.713Z,101498.28
2022-11-29T13:27:17.227Z,101496.91
2022-11-29T13:29:47.368Z,101482.06
2022-11-29T13:32:32.511Z,101483.34
2022-11-29T13:35:06.890Z,101488.38
2022-11-29T13:37:39.936Z,101485.69
2022-11-29T13:40:22.791Z,101483.03
2022-11-29T13:43:01.156Z,101485.81
2022-11-29T13:45:38.543Z,101487.44
2022-11-29T13:48:34.592Z,101483.41
2022-11-29T13:51:28.438Z,101483.78
2022-11-29T13:53:57.439Z,101485.50
2022-11-29T13:56:36.830Z,101482.56
2022-11-29T13:59:13.730Z,101480.34
2022-11-29T14:01:48.609Z,101486.97
2022-11-29T14:04:25.963Z,101488.13
2022-11-29T14:07:05.389Z,101490.53
2022-11-29T14:09:37.528Z,101481.47
2022-11-29T14:12:19.086Z,101487.97
2022-11-29T14:14:53.426Z,101477.59
2022-11-29T14:17:47.600Z,101466.59
2022-11-29T14:20:48.658Z,101469.06
2022-11-29T14:23:31.400Z,101467.84
2022-11-29T14:26:28.646Z,101469.41
2022-11-29T14:28:57.001Z,101477.69
2022-11-29T14:31:56.466Z,101463.72
2022-11-29T14:34:45.928Z,101465.38
2022-11-29T14:37:52.459Z,101464.56
2022-11-29T14:40:28.610Z,101470.56
2022-11-29T14:42:56.436Z,101471.84
2022-11-29T14:45:28.244Z,101477.63
2022-11-29T14:47:56.808Z,101479.09
2022-11-29T14:50:37.601Z,101468.78
2022-11-29T14:53:06.878Z,101468.78
2022-11-29T14:55:36.811Z,101472.56
2022-11-29T14:58:19.279Z,101468.44
2022-11-29T15:01:10.883Z,101473.00
2022-11-29T15:03:48.848Z,101469.22
2022-11-29T15:06:25.760Z,101473.53
2022-11-29T15:09:03.809Z,101472.97
2022-11-29T15:11:44.289Z,101471.28
2022-11-29T15:14:20.941Z,101473.59
2022-11-29T15:17:17.362Z,101465.63
2022-11-29T15:19:59.344Z,101468.19
2022-11-29T15:22:32.628Z,101459.03
2022-11-29T15:25:03.340Z,101465.50
2022-11-29T15:27:31.233Z,101471.16
2022-11-29T15:29:59.877Z,101467.81
2022-11-29T15:32:31.058Z,101478.72
2022-11-29T15:34:59.828Z,101484.81
2022-11-29T15:37:44.545Z,101492.53
2022-11-29T15:40:15.997Z,101495.41
2022-11-29T15:42:45.872Z,101489.34
2022-11-29T15:45:28.795Z,101488.31
2022-11-29T15:48:11.308Z,101494.41
2022-11-29T15:50:41.856Z,101494.13
2022-11-29T15:53:19.272Z,101493.22
2022-11-29T15:55:49.848Z,101495.53
2022-11-29T15:58:19.074Z,101496.34
2022-11-29T16:00:49.864Z,101491.31
2022-11-29T16:03:22.635Z,101494.72
2022-11-29T16:05:57.034Z,101499.03
2022-11-29T16:08:27.628Z,101498.94
2022-11-29T16:10:55.776Z,101495.31
2022-11-29T16:13:40.613Z,101492.91
2022-11-29T16:16:14.323Z,101494.03
2022-11-29T16:18:44.856Z,101489.69
2022-11-29T16:21:28.835Z,101503.78
2022-11-29T16:23:59.081Z,101504.78
2022-11-29T16:26:30.372Z,101504.13
2022-11-29T16:28:58.360Z,101503.31
2022-11-29T16:31:34.182Z,101502.91
2022-11-29T16:34:08.992Z,101507.19
2022-11-29T16:36:36.958Z,101509.69
2022-11-29T16:39:08.908Z,101508.94
2022-11-29T16:41:39.009Z,101503.78
2022-11-29T16:44:27.752Z,101507.38
2022-11-29T16:47:12.191Z,101510.09
2022-11-29T16:49:39.892Z,101511.09
2022-11-29T16:52:24.815Z,101514.66
2022-11-29T16:54:53.999Z,101504.44
2022-11-29T16:57:22.464Z,101507.94
2022-11-29T16:59:50.465Z,101498.19
2022-11-29T17:02:18.550Z,101504.75
2022-11-29T17:04:46.567Z,101508.38
2022-11-29T17:07:18.107Z,101513.66
2022-11-29T17:09:45.969Z,101511.03
2022-11-29T17:12:15.519Z,101506.94
2022-11-29T17:14:43.872Z,101510.66
2022-11-29T17:17:15.131Z,101516.00
2022-11-29T17:19:42.866Z,101516.63
2022-11-29T17:22:10.637Z,101520.53
2022-11-29T17:24:42.323Z,101525.13
2022-11-29T17:27:15.536Z,101527.59
2022-11-29T17:29:43.331Z,101537.41
2022-11-29T17:32:11.054Z,101531.09
2022-11-29T17:34:38.926Z,101539.03
2022-11-29T17:37:06.612Z,101538.25
2022-11-29T17:39:34.492Z,101532.56
2022-11-29T17:42:02.215Z,101527.91
2022-11-29T17:44:33.913Z,101528.50
2022-11-29T17:47:01.896Z,101526.53
2022-11-29T17:49:29.720Z,101535.28
2022-11-29T17:51:57.608Z,101536.97
2022-11-29T17:54:25.697Z,101535.03
2022-11-29T17:56:53.600Z,101539.34
2022-11-29T17:59:21.287Z,101535.69
2022-11-29T18:01:50.488Z,101543.72
2022-11-29T18:04:18.462Z,101550.00
2022-11-29T18:06:49.808Z,101552.88
2022-11-29T18:09:18.651Z,101542.81
2022-11-29T18:11:49.406Z,101549.44
2022-11-29T18:14:20.347Z,101553.91
2022-11-29T18:16:48.292Z,101544.94
2022-11-29T18:19:19.333Z,101560.63
2022-11-29T18:21:47.877Z,101554.28
2022-11-29T18:24:16.243Z,101554.72
2022-11-29T18:26:44.560Z,101561.16
2022-11-29T18:29:12.371Z,101554.34
2022-11-29T18:31:42.377Z,101556.97
2022-11-29T18:34:12.890Z,101553.53
2022-11-29T18:36:44.012Z,101561.66
2022-11-29T18:39:14.907Z,101558.00
2022-11-29T18:41:43.751Z,101561.25
2022-11-29T18:44:13.713Z,101554.84
2022-11-29T18:46:43.840Z,101555.28
2022-11-29T18:49:13.189Z,101553.94
2022-11-29T18:51:44.718Z,101568.16
2022-11-29T18:54:13.823Z,101559.66
2022-11-29T18:56:42.330Z,101562.94
2022-11-29T18:59:11.239Z,101566.41
2022-11-29T19:01:42.430Z,101563.84
2022-11-29T19:04:12.491Z,101561.97
2022-11-29T19:06:40.737Z,101569.16
2022-11-29T19:09:13.272Z,101565.25
2022-11-29T19:11:41.218Z,101564.41
2022-11-29T19:14:12.377Z,101570.09
2022-11-29T19:16:42.439Z,101569.25
2022-11-29T19:19:10.932Z,101567.59
2022-11-29T19:21:40.126Z,101574.41
2022-11-29T19:24:14.837Z,101570.97
2022-11-29T19:26:44.299Z,101574.72
2022-11-29T19:29:12.676Z,101581.63
2022-11-29T19:31:40.515Z,101568.69
2022-11-29T19:34:08.268Z,101575.75
2022-11-29T19:36:37.296Z,101568.84
2022-11-29T19:39:05.660Z,101569.72
2022-11-29T19:41:36.528Z,101575.09
2022-11-29T19:44:06.623Z,101580.16
2022-11-29T19:46:36.520Z,101577.53
2022-11-29T19:49:05.663Z,101582.19
2022-11-29T19:51:33.894Z,101574.97
2022-11-29T19:54:03.308Z,101582.09
2022-11-29T19:56:32.312Z,101581.31
2022-11-29T19:59:01.508Z,101585.03
2022-11-29T20:01:39.358Z,101584.94
2022-11-29T20:04:09.561Z,101580.53
2022-11-29T20:06:37.436Z,101583.47
2022-11-29T20:09:06.354Z,101583.47
2022-11-29T20:11:34.149Z,101585.25
2022-11-29T20:14:05.339Z,101583.66
2022-11-29T20:16:33.969Z,101593.50
2022-11-29T20:19:02.100Z,101582.75
2022-11-29T20:21:32.224Z,101591.66
2022-11-29T20:24:02.204Z,101591.44
2022-11-29T20:26:31.826Z,101592.50
2022-11-29T20:28:59.856Z,101596.75
2022-11-29T20:31:29.537Z,101596.00
2022-11-29T20:33:58.291Z,101596.59
2022-11-29T20:36:40.882Z,101594.22
2022-11-29T20:39:19.134Z,101598.91
2022-11-29T20:41:57.826Z,101597.25
2022-11-29T20:44:37.588Z,101599.16
2022-11-29T20:47:15.262Z,101594.81
2022-11-29T20:49:43.519Z,101602.81
2022-11-29T20:52:18.305Z,101596.97
2022-11-29T20:54:46.161Z,101588.84
2022-11-29T20:57:14.069Z,101600.38
2022-11-29T20:59:41.808Z,101598.47
2022-11-29T21:02:10.887Z,101601.44
2022-11-29T21:04:38.608Z,101599.03
2022-11-29T21:07:06.381Z,101603.44
2022-11-29T21:09:34.104Z,101605.66
2022-11-29T21:12:02.465Z,101610.00
2022-11-29T21:14:30.977Z,101609.94
2022-11-29T21:16:59.247Z,101608.25
2022-11-29T21:19:29.541Z,101612.59
2022-11-29T21:22:06.363Z,101606.19
2022-11-29T21:24:45.986Z,101605.91
2022-11-29T21:27:18.650Z,101612.06
2022-11-29T21:29:47.036Z,101607.69
2022-11-29T21:32:22.180Z,101615.56
2022-11-29T21:34:51.440Z,101614.72
2022-11-29T21:37:21.675Z,101609.88
2022-11-29T21:39:52.202Z,101612.78
2022-11-29T21:42:20.081Z,101623.19
2022-11-29T21:44:48.213Z,101623.16
2022-11-29T21:47:16.340Z,101622.63
2022-11-29T21:49:44.036Z,101618.28
2022-11-29T21:52:16.507Z,101612.00
2022-11-29T21:54:48.952Z,101605.00
2022-11-29T21:57:16.873Z,101598.41
2022-11-29T21:59:44.582Z,101596.78
2022-11-29T22:02:12.495Z,101605.78
2022-11-29T22:04:40.405Z,101600.78
2022-11-29T22:07:08.136Z,101601.84
2022-11-29T22:09:37.369Z,101605.97
2022-11-29T22:12:25.762Z,101594.09
2022-11-29T22:14:53.068Z,101607.31
2022-11-29T22:17:20.851Z,101616.75
2022-11-29T22:19:48.668Z,101613.91
2022-11-29T22:22:16.483Z,101618.41
2022-11-29T22:24:45.936Z,101614.22
2022-11-29T22:27:13.810Z,101611.25
2022-11-29T22:29:41.522Z,101615.09
2022-11-29T22:32:09.278Z,101607.88
2022-11-29T22:34:37.019Z,101615.34
2022-11-29T22:37:04.707Z,101614.69
2022-11-29T22:39:32.531Z,101614.88
2022-11-29T22:42:01.600Z,101610.78
2022-11-29T22:44:30.114Z,101621.97
2022-11-29T22:46:58.052Z,101623.66
2022-11-29T22:49:26.032Z,101624.63
2022-11-29T22:51:54.931Z,101620.47
2022-11-29T22:54:22.757Z,101621.34
2022-11-29T22:56:50.454Z,101625.47
2022-11-29T22:59:19.531Z,101622.06
2022-11-29T23:01:47.327Z,101618.47
2022-11-29T23:04:15.657Z,101619.09
2022-11-29T23:06:44.738Z,101615.03
2022-11-29T23:09:15.956Z,101612.91
2022-11-29T23:11:44.299Z,101620.00
2022-11-29T23:14:12.556Z,101619.59
2022-11-29T23:16:41.885Z,101613.03
2022-11-29T23:19:10.340Z,101622.00
2022-11-29T23:21:40.001Z,101619.03
2022-11-29T23:24:08.640Z,101618.59
2022-11-29T23:26:40.114Z,101623.31
2022-11-29T23:29:10.037Z,101610.13
2022-11-29T23:31:38.163Z,101613.13
2022-11-29T23:34:07.675Z,101606.38
2022-11-29T23:36:36.486Z,101613.75
2022-11-29T23:39:04.256Z,101613.22
2022-11-29T23:41:32.007Z,101608.78
2022-11-29T23:43:59.954Z,101608.91
2022-11-29T23:46:27.659Z,101611.41
2022-11-29T23:48:55.572Z,101611.38
2022-11-29T23:51:24.729Z,101606.09
2022-11-29T23:53:53.039Z,101605.75
2022-11-29T23:56:22.010Z,101610.56
2022-11-29T23:58:50.279Z,101607.38
